sensor_id;sensor_type;location;lat;lon;timestamp;temperature;humidity
24430;DHT22;12613;47.408;8.412;2023-08-08T00:00:09;14.60;83.90
24430;DHT22;12613;47.408;8.412;2023-08-08T00:02:35;14.60;83.80
24430;DHT22;12613;47.408;8.412;2023-08-08T00:05:01;14.50;84.10
24430;DHT22;12613;47.408;8.412;2023-08-08T00:07:27;14.50;84.30
24430;DHT22;12613;47.408;8.412;2023-08-08T00:09:56;14.50;84.40
24430;DHT22;12613;47.408;8.412;2023-08-08T00:12:22;14.50;84.50
24430;DHT22;12613;47.408;8.412;2023-08-08T00:14:48;14.50;84.60
24430;DHT22;12613;47.408;8.412;2023-08-08T00:17:13;14.50;84.70
24430;DHT22;12613;47.408;8.412;2023-08-08T00:19:39;14.40;84.80
24430;DHT22;12613;47.408;8.412;2023-08-08T00:22:05;14.40;84.80
24430;DHT22;12613;47.408;8.412;2023-08-08T00:24:31;14.40;84.90
24430;DHT22;12613;47.408;8.412;2023-08-08T00:26:57;14.40;85.10
24430;DHT22;12613;47.408;8.412;2023-08-08T00:29:22;14.40;85.40
24430;DHT22;12613;47.408;8.412;2023-08-08T00:31:48;14.30;85.30
24430;DHT22;12613;47.408;8.412;2023-08-08T00:34:13;14.30;85.50
24430;DHT22;12613;47.408;8.412;2023-08-08T00:36:39;14.30;85.80
24430;DHT22;12613;47.408;8.412;2023-08-08T00:39:05;14.30;85.90
24430;DHT22;12613;47.408;8.412;2023-08-08T00:41:30;14.30;86.00
24430;DHT22;12613;47.408;8.412;2023-08-08T00:43:56;14.30;86.00
24430;DHT22;12613;47.408;8.412;2023-08-08T00:46:22;14.30;86.20
24430;DHT22;12613;47.408;8.412;2023-08-08T00:48:50;14.30;86.30
24430;DHT22;12613;47.408;8.412;2023-08-08T00:51:16;14.30;86.40
24430;DHT22;12613;47.408;8.412;2023-08-08T00:53:42;14.30;86.30
24430;DHT22;12613;47.408;8.412;2023-08-08T00:56:09;14.30;86.50
24430;DHT22;12613;47.408;8.412;2023-08-08T00:58:36;14.30;86.70
24430;DHT22;12613;47.408;8.412;2023-08-08T01:01:02;14.20;86.90
24430;DHT22;12613;47.408;8.412;2023-08-08T01:03:28;14.20;87.00
24430;DHT22;12613;47.408;8.412;2023-08-08T01:06:02;14.20;87.20
24430;DHT22;12613;47.408;8.412;2023-08-08T01:08:35;14.20;87.40
24430;DHT22;12613;47.408;8.412;2023-08-08T01:11:05;14.30;87.70
24430;DHT22;12613;47.408;8.412;2023-08-08T01:13:31;14.30;87.70
24430;DHT22;12613;47.408;8.412;2023-08-08T01:15:58;14.30;87.70
24430;DHT22;12613;47.408;8.412;2023-08-08T01:18:25;14.30;87.90
24430;DHT22;12613;47.408;8.412;2023-08-08T01:20:52;14.20;87.80
24430;DHT22;12613;47.408;8.412;2023-08-08T01:23:34;14.20;87.60
24430;DHT22;12613;47.408;8.412;2023-08-08T01:26:07;14.20;87.80
24430;DHT22;12613;47.408;8.412;2023-08-08T01:28:34;14.20;88.10
24430;DHT22;12613;47.408;8.412;2023-08-08T01:31:00;14.20;88.20
24430;DHT22;12613;47.408;8.412;2023-08-08T01:33:25;14.20;88.20
24430;DHT22;12613;47.408;8.412;2023-08-08T01:35:55;14.10;88.20
24430;DHT22;12613;47.408;8.412;2023-08-08T01:38:28;14.20;88.30
24430;DHT22;12613;47.408;8.412;2023-08-08T01:40:56;14.10;88.30
24430;DHT22;12613;47.408;8.412;2023-08-08T01:43:24;14.10;88.50
24430;DHT22;12613;47.408;8.412;2023-08-08T01:45:50;14.10;88.70
24430;DHT22;12613;47.408;8.412;2023-08-08T01:48:17;14.10;89.00
24430;DHT22;12613;47.408;8.412;2023-08-08T01:50:43;14.00;89.10
24430;DHT22;12613;47.408;8.412;2023-08-08T01:53:09;14.00;89.10
24430;DHT22;12613;47.408;8.412;2023-08-08T01:55:35;14.00;89.20
24430;DHT22;12613;47.408;8.412;2023-08-08T01:58:00;14.00;89.20
24430;DHT22;12613;47.408;8.412;2023-08-08T02:00:26;14.00;89.30
24430;DHT22;12613;47.408;8.412;2023-08-08T02:02:52;14.10;89.30
24430;DHT22;12613;47.408;8.412;2023-08-08T02:05:18;14.00;89.50
24430;DHT22;12613;47.408;8.412;2023-08-08T02:07:43;14.00;89.50
24430;DHT22;12613;47.408;8.412;2023-08-08T02:10:09;13.90;89.60
24430;DHT22;12613;47.408;8.412;2023-08-08T02:12:35;13.90;89.90
24430;DHT22;12613;47.408;8.412;2023-08-08T02:15:00;13.90;89.90
24430;DHT22;12613;47.408;8.412;2023-08-08T02:17:26;13.90;89.90
24430;DHT22;12613;47.408;8.412;2023-08-08T02:19:52;14.00;90.00
24430;DHT22;12613;47.408;8.412;2023-08-08T02:22:18;13.90;90.00
24430;DHT22;12613;47.408;8.412;2023-08-08T02:24:44;13.90;90.00
24430;DHT22;12613;47.408;8.412;2023-08-08T02:27:11;13.90;90.00
24430;DHT22;12613;47.408;8.412;2023-08-08T02:29:36;13.90;90.00
24430;DHT22;12613;47.408;8.412;2023-08-08T02:32:02;13.80;90.00
24430;DHT22;12613;47.408;8.412;2023-08-08T02:34:28;13.80;90.00
24430;DHT22;12613;47.408;8.412;2023-08-08T02:36:54;13.70;90.10
24430;DHT22;12613;47.408;8.412;2023-08-08T02:39:19;13.70;90.30
24430;DHT22;12613;47.408;8.412;2023-08-08T02:41:45;13.80;90.30
24430;DHT22;12613;47.408;8.412;2023-08-08T02:44:11;13.70;90.20
24430;DHT22;12613;47.408;8.412;2023-08-08T02:46:37;13.70;90.30
24430;DHT22;12613;47.408;8.412;2023-08-08T02:49:05;13.70;90.30
24430;DHT22;12613;47.408;8.412;2023-08-08T02:51:31;13.70;90.30
24430;DHT22;12613;47.408;8.412;2023-08-08T02:56:32;13.60;90.50
24430;DHT22;12613;47.408;8.412;2023-08-08T02:58:58;13.70;90.60
24430;DHT22;12613;47.408;8.412;2023-08-08T03:01:23;13.60;90.50
24430;DHT22;12613;47.408;8.412;2023-08-08T03:03:49;13.60;90.50
24430;DHT22;12613;47.408;8.412;2023-08-08T03:06:15;13.60;90.50
24430;DHT22;12613;47.408;8.412;2023-08-08T03:08:41;13.60;90.50
24430;DHT22;12613;47.408;8.412;2023-08-08T03:16:44;13.50;90.60
24430;DHT22;12613;47.408;8.412;2023-08-08T03:19:10;13.50;90.60
24430;DHT22;12613;47.408;8.412;2023-08-08T03:21:36;13.50;90.70
24430;DHT22;12613;47.408;8.412;2023-08-08T03:24:01;13.50;90.80
24430;DHT22;12613;47.408;8.412;2023-08-08T03:26:27;13.40;90.80
24430;DHT22;12613;47.408;8.412;2023-08-08T03:28:53;13.40;90.90
24430;DHT22;12613;47.408;8.412;2023-08-08T03:31:19;13.40;90.90
24430;DHT22;12613;47.408;8.412;2023-08-08T03:33:45;13.40;90.90
24430;DHT22;12613;47.408;8.412;2023-08-08T03:38:47;13.30;90.90
24430;DHT22;12613;47.408;8.412;2023-08-08T03:41:13;13.30;91.00
24430;DHT22;12613;47.408;8.412;2023-08-08T03:43:39;13.30;91.00
24430;DHT22;12613;47.408;8.412;2023-08-08T03:46:05;13.30;91.10
24430;DHT22;12613;47.408;8.412;2023-08-08T03:48:31;13.30;91.10
24430;DHT22;12613;47.408;8.412;2023-08-08T03:50:57;13.30;91.10
24430;DHT22;12613;47.408;8.412;2023-08-08T03:53:23;13.20;91.20
24430;DHT22;12613;47.408;8.412;2023-08-08T03:55:49;13.20;91.10
24430;DHT22;12613;47.408;8.412;2023-08-08T03:58:14;13.20;91.20
24430;DHT22;12613;47.408;8.412;2023-08-08T04:00:40;13.10;91.20
24430;DHT22;12613;47.408;8.412;2023-08-08T04:03:15;13.20;91.20
24430;DHT22;12613;47.408;8.412;2023-08-08T04:05:45;13.10;91.10
24430;DHT22;12613;47.408;8.412;2023-08-08T04:08:15;13.10;91.20
24430;DHT22;12613;47.408;8.412;2023-08-08T04:10:41;13.10;91.30
24430;DHT22;12613;47.408;8.412;2023-08-08T04:13:07;13.10;91.30
24430;DHT22;12613;47.408;8.412;2023-08-08T04:15:33;13.10;91.50
24430;DHT22;12613;47.408;8.412;2023-08-08T04:17:59;13.10;91.50
24430;DHT22;12613;47.408;8.412;2023-08-08T04:20:25;13.10;91.50
24430;DHT22;12613;47.408;8.412;2023-08-08T04:22:50;13.10;91.50
24430;DHT22;12613;47.408;8.412;2023-08-08T04:25:16;13.00;91.50
24430;DHT22;12613;47.408;8.412;2023-08-08T04:27:42;13.00;91.60
24430;DHT22;12613;47.408;8.412;2023-08-08T04:30:08;13.00;91.60
24430;DHT22;12613;47.408;8.412;2023-08-08T04:32:34;13.00;91.60
24430;DHT22;12613;47.408;8.412;2023-08-08T04:35:00;13.00;91.70
24430;DHT22;12613;47.408;8.412;2023-08-08T04:37:25;13.00;91.80
24430;DHT22;12613;47.408;8.412;2023-08-08T04:39:51;13.00;91.80
24430;DHT22;12613;47.408;8.412;2023-08-08T04:42:17;13.00;91.90
24430;DHT22;12613;47.408;8.412;2023-08-08T04:44:42;13.10;92.00
24430;DHT22;12613;47.408;8.412;2023-08-08T04:47:08;13.10;92.00
24430;DHT22;12613;47.408;8.412;2023-08-08T04:49:34;13.20;92.10
24430;DHT22;12613;47.408;8.412;2023-08-08T04:51:59;13.20;92.10
24430;DHT22;12613;47.408;8.412;2023-08-08T04:54:25;13.20;92.10
24430;DHT22;12613;47.408;8.412;2023-08-08T04:56:51;13.30;92.10
24430;DHT22;12613;47.408;8.412;2023-08-08T04:59:17;13.20;92.20
24430;DHT22;12613;47.408;8.412;2023-08-08T05:01:42;13.30;92.20
24430;DHT22;12613;47.408;8.412;2023-08-08T05:04:09;13.30;92.20
24430;DHT22;12613;47.408;8.412;2023-08-08T05:06:34;13.30;92.20
24430;DHT22;12613;47.408;8.412;2023-08-08T05:09:00;13.40;92.30
24430;DHT22;12613;47.408;8.412;2023-08-08T05:11:26;13.40;92.30
24430;DHT22;12613;47.408;8.412;2023-08-08T05:13:51;13.50;92.40
24430;DHT22;12613;47.408;8.412;2023-08-08T05:16:18;13.50;92.40
24430;DHT22;12613;47.408;8.412;2023-08-08T05:18:43;13.50;92.40
24430;DHT22;12613;47.408;8.412;2023-08-08T05:21:10;13.60;92.40
24430;DHT22;12613;47.408;8.412;2023-08-08T05:23:36;13.60;92.60
24430;DHT22;12613;47.408;8.412;2023-08-08T05:26:03;13.70;92.80
24430;DHT22;12613;47.408;8.412;2023-08-08T05:28:29;13.80;92.90
24430;DHT22;12613;47.408;8.412;2023-08-08T05:30:54;14.00;93.00
24430;DHT22;12613;47.408;8.412;2023-08-08T05:33:21;14.10;93.00
24430;DHT22;12613;47.408;8.412;2023-08-08T05:38:22;14.20;92.80
24430;DHT22;12613;47.408;8.412;2023-08-08T05:40:48;14.40;92.80
24430;DHT22;12613;47.408;8.412;2023-08-08T05:43:14;14.40;92.60
24430;DHT22;12613;47.408;8.412;2023-08-08T05:45:44;14.40;92.40
24430;DHT22;12613;47.408;8.412;2023-08-08T05:48:10;14.40;92.50
24430;DHT22;12613;47.408;8.412;2023-08-08T05:53:12;14.40;92.50
24430;DHT22;12613;47.408;8.412;2023-08-08T05:55:41;14.40;92.50
24430;DHT22;12613;47.408;8.412;2023-08-08T05:58:08;14.50;92.50
24430;DHT22;12613;47.408;8.412;2023-08-08T06:00:35;14.50;92.50
24430;DHT22;12613;47.408;8.412;2023-08-08T06:05:36;14.60;92.40
24430;DHT22;12613;47.408;8.412;2023-08-08T06:08:01;14.60;92.40
24430;DHT22;12613;47.408;8.412;2023-08-08T06:10:27;14.60;92.40
24430;DHT22;12613;47.408;8.412;2023-08-08T06:12:53;14.70;92.40
24430;DHT22;12613;47.408;8.412;2023-08-08T06:15:18;14.80;92.50
24430;DHT22;12613;47.408;8.412;2023-08-08T06:17:44;14.80;92.50
24430;DHT22;12613;47.408;8.412;2023-08-08T06:20:10;14.90;92.40
24430;DHT22;12613;47.408;8.412;2023-08-08T06:22:36;15.00;92.30
24430;DHT22;12613;47.408;8.412;2023-08-08T06:25:02;15.00;92.20
24430;DHT22;12613;47.408;8.412;2023-08-08T06:27:29;15.00;92.30
24430;DHT22;12613;47.408;8.412;2023-08-08T06:29:55;15.10;92.30
24430;DHT22;12613;47.408;8.412;2023-08-08T06:32:21;15.10;92.30
24430;DHT22;12613;47.408;8.412;2023-08-08T06:34:47;15.20;92.20
24430;DHT22;12613;47.408;8.412;2023-08-08T06:37:13;15.30;92.30
24430;DHT22;12613;47.408;8.412;2023-08-08T06:39:39;15.30;92.20
24430;DHT22;12613;47.408;8.412;2023-08-08T06:42:05;15.40;92.10
24430;DHT22;12613;47.408;8.412;2023-08-08T06:44:41;15.40;92.00
24430;DHT22;12613;47.408;8.412;2023-08-08T06:47:08;15.50;92.00
24430;DHT22;12613;47.408;8.412;2023-08-08T06:49:33;15.60;92.00
24430;DHT22;12613;47.408;8.412;2023-08-08T06:51:59;15.60;91.80
24430;DHT22;12613;47.408;8.412;2023-08-08T06:54:25;15.70;91.50
24430;DHT22;12613;47.408;8.412;2023-08-08T06:56:54;15.70;91.30
24430;DHT22;12613;47.408;8.412;2023-08-08T06:59:22;15.70;91.20
24430;DHT22;12613;47.408;8.412;2023-08-08T07:01:49;15.80;91.20
24430;DHT22;12613;47.408;8.412;2023-08-08T07:04:14;15.80;91.00
24430;DHT22;12613;47.408;8.412;2023-08-08T07:06:42;15.80;91.30
24430;DHT22;12613;47.408;8.412;2023-08-08T07:09:08;15.90;91.40
24430;DHT22;12613;47.408;8.412;2023-08-08T07:11:36;16.00;91.30
24430;DHT22;12613;47.408;8.412;2023-08-08T07:14:01;16.10;91.30
24430;DHT22;12613;47.408;8.412;2023-08-08T07:16:27;16.20;91.20
24430;DHT22;12613;47.408;8.412;2023-08-08T07:18:53;16.30;91.00
24430;DHT22;12613;47.408;8.412;2023-08-08T07:21:18;16.40;91.00
24430;DHT22;12613;47.408;8.412;2023-08-08T07:23:44;16.40;90.90
24430;DHT22;12613;47.408;8.412;2023-08-08T07:26:09;16.50;90.80
24430;DHT22;12613;47.408;8.412;2023-08-08T07:28:36;16.60;90.80
24430;DHT22;12613;47.408;8.412;2023-08-08T07:31:01;16.60;90.70
24430;DHT22;12613;47.408;8.412;2023-08-08T07:33:27;16.70;90.30
24430;DHT22;12613;47.408;8.412;2023-08-08T07:35:52;16.70;89.40
24430;DHT22;12613;47.408;8.412;2023-08-08T07:38:18;16.60;89.50
24430;DHT22;12613;47.408;8.412;2023-08-08T07:40:44;16.60;89.70
24430;DHT22;12613;47.408;8.412;2023-08-08T07:43:11;16.70;90.10
24430;DHT22;12613;47.408;8.412;2023-08-08T07:45:37;16.70;90.20
24430;DHT22;12613;47.408;8.412;2023-08-08T07:48:03;16.80;90.10
24430;DHT22;12613;47.408;8.412;2023-08-08T07:50:29;16.90;90.10
24430;DHT22;12613;47.408;8.412;2023-08-08T07:52:55;17.00;90.00
24430;DHT22;12613;47.408;8.412;2023-08-08T07:55:20;17.10;90.00
24430;DHT22;12613;47.408;8.412;2023-08-08T07:57:46;17.30;90.00
24430;DHT22;12613;47.408;8.412;2023-08-08T08:00:13;17.30;89.80
24430;DHT22;12613;47.408;8.412;2023-08-08T08:02:40;17.40;89.50
24430;DHT22;12613;47.408;8.412;2023-08-08T08:05:06;17.50;88.90
24430;DHT22;12613;47.408;8.412;2023-08-08T08:07:36;17.60;88.90
24430;DHT22;12613;47.408;8.412;2023-08-08T08:10:04;17.50;88.00
24430;DHT22;12613;47.408;8.412;2023-08-08T08:12:30;17.60;87.40
24430;DHT22;12613;47.408;8.412;2023-08-08T08:14:56;17.50;86.80
24430;DHT22;12613;47.408;8.412;2023-08-08T08:17:21;17.50;85.00
24430;DHT22;12613;47.408;8.412;2023-08-08T08:19:47;17.40;85.10
24430;DHT22;12613;47.408;8.412;2023-08-08T08:22:13;17.40;84.30
24430;DHT22;12613;47.408;8.412;2023-08-08T08:24:38;17.30;84.80
24430;DHT22;12613;47.408;8.412;2023-08-08T08:27:04;17.40;84.70
24430;DHT22;12613;47.408;8.412;2023-08-08T08:29:30;17.40;84.50
24430;DHT22;12613;47.408;8.412;2023-08-08T08:31:57;17.40;83.80
24430;DHT22;12613;47.408;8.412;2023-08-08T08:34:22;17.40;84.10
24430;DHT22;12613;47.408;8.412;2023-08-08T08:36:48;17.60;84.10
24430;DHT22;12613;47.408;8.412;2023-08-08T08:39:13;17.70;83.80
24430;DHT22;12613;47.408;8.412;2023-08-08T08:41:39;17.70;83.30
24430;DHT22;12613;47.408;8.412;2023-08-08T08:44:05;17.90;83.20
24430;DHT22;12613;47.408;8.412;2023-08-08T08:46:32;18.00;83.90
24430;DHT22;12613;47.408;8.412;2023-08-08T08:49:02;18.10;82.70
24430;DHT22;12613;47.408;8.412;2023-08-08T08:51:31;18.10;81.80
24430;DHT22;12613;47.408;8.412;2023-08-08T08:53:58;18.20;81.40
24430;DHT22;12613;47.408;8.412;2023-08-08T08:56:24;18.20;80.70
24430;DHT22;12613;47.408;8.412;2023-08-08T08:58:51;18.20;80.50
24430;DHT22;12613;47.408;8.412;2023-08-08T09:01:16;18.30;80.90
24430;DHT22;12613;47.408;8.412;2023-08-08T09:03:44;18.40;81.10
24430;DHT22;12613;47.408;8.412;2023-08-08T09:06:11;18.50;80.70
24430;DHT22;12613;47.408;8.412;2023-08-08T09:08:36;18.50;80.40
24430;DHT22;12613;47.408;8.412;2023-08-08T09:11:02;18.60;80.20
24430;DHT22;12613;47.408;8.412;2023-08-08T09:13:37;18.70;79.90
24430;DHT22;12613;47.408;8.412;2023-08-08T09:16:07;18.80;80.10
24430;DHT22;12613;47.408;8.412;2023-08-08T09:18:34;18.90;79.80
24430;DHT22;12613;47.408;8.412;2023-08-08T09:21:00;19.00;79.60
24430;DHT22;12613;47.408;8.412;2023-08-08T09:23:25;19.10;79.30
24430;DHT22;12613;47.408;8.412;2023-08-08T09:25:51;19.20;78.30
24430;DHT22;12613;47.408;8.412;2023-08-08T09:28:17;19.30;78.60
24430;DHT22;12613;47.408;8.412;2023-08-08T09:30:44;19.40;78.80
24430;DHT22;12613;47.408;8.412;2023-08-08T09:33:09;19.50;78.60
24430;DHT22;12613;47.408;8.412;2023-08-08T09:35:38;19.70;78.90
24430;DHT22;12613;47.408;8.412;2023-08-08T09:38:04;19.80;77.30
24430;DHT22;12613;47.408;8.412;2023-08-08T09:40:31;19.80;77.20
24430;DHT22;12613;47.408;8.412;2023-08-08T09:42:56;20.00;77.80
24430;DHT22;12613;47.408;8.412;2023-08-08T09:45:22;20.10;76.50
24430;DHT22;12613;47.408;8.412;2023-08-08T09:47:50;20.20;76.60
24430;DHT22;12613;47.408;8.412;2023-08-08T09:50:18;20.40;77.10
24430;DHT22;12613;47.408;8.412;2023-08-08T09:52:46;20.60;77.40
24430;DHT22;12613;47.408;8.412;2023-08-08T09:55:13;20.70;75.90
24430;DHT22;12613;47.408;8.412;2023-08-08T09:57:39;20.80;75.80
24430;DHT22;12613;47.408;8.412;2023-08-08T10:00:06;20.90;75.10
24430;DHT22;12613;47.408;8.412;2023-08-08T10:02:36;20.90;73.80
24430;DHT22;12613;47.408;8.412;2023-08-08T10:05:04;20.80;71.40
24430;DHT22;12613;47.408;8.412;2023-08-08T10:07:30;20.70;72.60
24430;DHT22;12613;47.408;8.412;2023-08-08T10:09:57;20.70;70.60
24430;DHT22;12613;47.408;8.412;2023-08-08T10:12:25;20.70;70.70
24430;DHT22;12613;47.408;8.412;2023-08-08T10:14:52;20.70;70.90
24430;DHT22;12613;47.408;8.412;2023-08-08T10:17:18;20.70;71.00
24430;DHT22;12613;47.408;8.412;2023-08-08T10:19:56;20.80;70.20
24430;DHT22;12613;47.408;8.412;2023-08-08T10:22:24;20.70;69.30
24430;DHT22;12613;47.408;8.412;2023-08-08T10:24:54;20.60;67.50
24430;DHT22;12613;47.408;8.412;2023-08-08T10:27:34;20.60;68.40
24430;DHT22;12613;47.408;8.412;2023-08-08T10:30:02;20.50;68.10
24430;DHT22;12613;47.408;8.412;2023-08-08T10:32:38;20.50;67.00
24430;DHT22;12613;47.408;8.412;2023-08-08T10:35:06;20.50;67.50
24430;DHT22;12613;47.408;8.412;2023-08-08T10:37:32;20.60;67.30
24430;DHT22;12613;47.408;8.412;2023-08-08T10:39:59;20.60;67.40
24430;DHT22;12613;47.408;8.412;2023-08-08T10:42:28;20.80;68.20
24430;DHT22;12613;47.408;8.412;2023-08-08T10:44:56;21.00;68.00
24430;DHT22;12613;47.408;8.412;2023-08-08T10:47:26;21.20;67.50
24430;DHT22;12613;47.408;8.412;2023-08-08T10:50:12;21.30;65.50
24430;DHT22;12613;47.408;8.412;2023-08-08T10:55:23;21.30;66.10
24430;DHT22;12613;47.408;8.412;2023-08-08T10:58:13;21.40;65.30
24430;DHT22;12613;47.408;8.412;2023-08-08T11:00:41;21.40;65.20
24430;DHT22;12613;47.408;8.412;2023-08-08T11:03:08;21.30;64.70
24430;DHT22;12613;47.408;8.412;2023-08-08T11:05:37;21.30;64.90
24430;DHT22;12613;47.408;8.412;2023-08-08T11:08:04;21.40;65.40
24430;DHT22;12613;47.408;8.412;2023-08-08T11:10:35;21.50;65.00
24430;DHT22;12613;47.408;8.412;2023-08-08T11:13:03;21.50;64.70
24430;DHT22;12613;47.408;8.412;2023-08-08T11:15:30;21.50;64.20
24430;DHT22;12613;47.408;8.412;2023-08-08T11:17:57;21.60;64.80
24430;DHT22;12613;47.408;8.412;2023-08-08T11:20:23;21.60;63.50
24430;DHT22;12613;47.408;8.412;2023-08-08T11:22:56;21.70;64.20
24430;DHT22;12613;47.408;8.412;2023-08-08T11:25:22;21.80;61.40
24430;DHT22;12613;47.408;8.412;2023-08-08T11:27:51;21.80;61.40
24430;DHT22;12613;47.408;8.412;2023-08-08T11:30:17;21.80;61.60
24430;DHT22;12613;47.408;8.412;2023-08-08T11:32:43;21.80;60.70
24430;DHT22;12613;47.408;8.412;2023-08-08T11:35:09;21.90;60.80
24430;DHT22;12613;47.408;8.412;2023-08-08T11:37:35;22.00;60.00
24430;DHT22;12613;47.408;8.412;2023-08-08T11:40:02;22.00;59.60
24430;DHT22;12613;47.408;8.412;2023-08-08T11:42:31;22.00;59.80
24430;DHT22;12613;47.408;8.412;2023-08-08T11:44:58;22.10;60.10
24430;DHT22;12613;47.408;8.412;2023-08-08T11:47:26;22.10;59.00
24430;DHT22;12613;47.408;8.412;2023-08-08T11:49:53;22.20;58.60
24430;DHT22;12613;47.408;8.412;2023-08-08T11:52:19;22.20;58.50
24430;DHT22;12613;47.408;8.412;2023-08-08T11:54:51;22.30;58.80
24430;DHT22;12613;47.408;8.412;2023-08-08T11:57:17;22.30;57.70
24430;DHT22;12613;47.408;8.412;2023-08-08T11:59:43;22.30;57.80
24430;DHT22;12613;47.408;8.412;2023-08-08T12:02:09;22.40;57.40
24430;DHT22;12613;47.408;8.412;2023-08-08T12:04:36;22.40;57.30
24430;DHT22;12613;47.408;8.412;2023-08-08T12:07:02;22.60;56.90
24430;DHT22;12613;47.408;8.412;2023-08-08T12:09:32;22.60;56.80
24430;DHT22;12613;47.408;8.412;2023-08-08T12:12:01;22.70;55.90
24430;DHT22;12613;47.408;8.412;2023-08-08T12:14:28;22.60;55.50
24430;DHT22;12613;47.408;8.412;2023-08-08T12:16:54;22.60;55.50
24430;DHT22;12613;47.408;8.412;2023-08-08T12:19:23;22.60;55.60
24430;DHT22;12613;47.408;8.412;2023-08-08T12:21:50;22.70;55.90
24430;DHT22;12613;47.408;8.412;2023-08-08T12:24:19;22.70;55.80
24430;DHT22;12613;47.408;8.412;2023-08-08T12:26:45;22.70;54.70
24430;DHT22;12613;47.408;8.412;2023-08-08T12:29:12;22.60;54.40
24430;DHT22;12613;47.408;8.412;2023-08-08T12:31:38;22.50;54.60
24430;DHT22;12613;47.408;8.412;2023-08-08T12:34:04;22.50;54.70
24430;DHT22;12613;47.408;8.412;2023-08-08T12:36:30;22.40;54.30
24430;DHT22;12613;47.408;8.412;2023-08-08T12:38:56;22.40;55.10
24430;DHT22;12613;47.408;8.412;2023-08-08T12:41:23;22.40;54.60
24430;DHT22;12613;47.408;8.412;2023-08-08T12:43:50;22.40;55.20
24430;DHT22;12613;47.408;8.412;2023-08-08T12:46:16;22.50;55.70
24430;DHT22;12613;47.408;8.412;2023-08-08T12:48:42;22.60;55.50
24430;DHT22;12613;47.408;8.412;2023-08-08T12:51:09;22.70;55.60
24430;DHT22;12613;47.408;8.412;2023-08-08T12:53:35;22.70;54.70
24430;DHT22;12613;47.408;8.412;2023-08-08T12:56:01;22.60;54.80
24430;DHT22;12613;47.408;8.412;2023-08-08T12:58:26;22.60;54.90
24430;DHT22;12613;47.408;8.412;2023-08-08T13:00:52;22.60;55.20
24430;DHT22;12613;47.408;8.412;2023-08-08T13:03:18;22.70;54.80
24430;DHT22;12613;47.408;8.412;2023-08-08T13:05:44;22.70;54.80
24430;DHT22;12613;47.408;8.412;2023-08-08T13:08:09;22.70;55.10
24430;DHT22;12613;47.408;8.412;2023-08-08T13:10:36;22.80;55.80
24430;DHT22;12613;47.408;8.412;2023-08-08T13:13:01;22.90;55.00
24430;DHT22;12613;47.408;8.412;2023-08-08T13:15:27;22.90;54.10
24430;DHT22;12613;47.408;8.412;2023-08-08T13:17:53;22.90;55.20
24430;DHT22;12613;47.408;8.412;2023-08-08T13:20:18;23.00;55.30
24430;DHT22;12613;47.408;8.412;2023-08-08T13:22:44;23.10;54.70
24430;DHT22;12613;47.408;8.412;2023-08-08T13:25:10;23.10;54.90
24430;DHT22;12613;47.408;8.412;2023-08-08T13:27:36;23.20;54.90
24430;DHT22;12613;47.408;8.412;2023-08-08T13:30:02;23.20;55.00
24430;DHT22;12613;47.408;8.412;2023-08-08T13:32:28;23.40;55.20
24430;DHT22;12613;47.408;8.412;2023-08-08T13:34:53;23.50;55.20
24430;DHT22;12613;47.408;8.412;2023-08-08T13:37:19;23.70;55.10
24430;DHT22;12613;47.408;8.412;2023-08-08T13:39:45;23.80;55.10
24430;DHT22;12613;47.408;8.412;2023-08-08T13:42:11;23.90;56.30
24430;DHT22;12613;47.408;8.412;2023-08-08T13:44:36;24.10;55.10
24430;DHT22;12613;47.408;8.412;2023-08-08T13:47:02;24.20;54.70
24430;DHT22;12613;47.408;8.412;2023-08-08T13:49:28;24.30;53.80
24430;DHT22;12613;47.408;8.412;2023-08-08T13:51:54;24.20;53.50
24430;DHT22;12613;47.408;8.412;2023-08-08T13:54:20;24.20;54.10
24430;DHT22;12613;47.408;8.412;2023-08-08T13:56:46;24.30;54.50
24430;DHT22;12613;47.408;8.412;2023-08-08T13:59:11;24.50;54.40
24430;DHT22;12613;47.408;8.412;2023-08-08T14:01:37;24.60;53.60
24430;DHT22;12613;47.408;8.412;2023-08-08T14:04:03;24.60;52.50
24430;DHT22;12613;47.408;8.412;2023-08-08T14:06:29;24.60;52.70
24430;DHT22;12613;47.408;8.412;2023-08-08T14:08:56;24.70;52.50
24430;DHT22;12613;47.408;8.412;2023-08-08T14:11:22;24.60;52.30
24430;DHT22;12613;47.408;8.412;2023-08-08T14:13:47;24.80;53.20
24430;DHT22;12613;47.408;8.412;2023-08-08T14:16:13;24.80;52.20
24430;DHT22;12613;47.408;8.412;2023-08-08T14:18:39;24.70;52.00
24430;DHT22;12613;47.408;8.412;2023-08-08T14:21:04;24.70;51.60
24430;DHT22;12613;47.408;8.412;2023-08-08T14:23:31;24.70;52.70
24430;DHT22;12613;47.408;8.412;2023-08-08T14:25:57;24.90;51.80
24430;DHT22;12613;47.408;8.412;2023-08-08T14:28:22;25.00;52.60
24430;DHT22;12613;47.408;8.412;2023-08-08T14:30:48;25.20;51.70
24430;DHT22;12613;47.408;8.412;2023-08-08T14:33:15;25.30;51.20
24430;DHT22;12613;47.408;8.412;2023-08-08T14:35:41;25.30;51.70
24430;DHT22;12613;47.408;8.412;2023-08-08T14:38:06;25.50;52.30
24430;DHT22;12613;47.408;8.412;2023-08-08T14:40:32;25.70;51.00
24430;DHT22;12613;47.408;8.412;2023-08-08T14:43:00;25.70;49.90
24430;DHT22;12613;47.408;8.412;2023-08-08T14:45:26;25.90;51.40
24430;DHT22;12613;47.408;8.412;2023-08-08T14:47:52;26.10;51.70
24430;DHT22;12613;47.408;8.412;2023-08-08T14:50:17;26.30;50.60
24430;DHT22;12613;47.408;8.412;2023-08-08T14:52:44;26.50;49.80
24430;DHT22;12613;47.408;8.412;2023-08-08T14:55:09;26.60;49.50
24430;DHT22;12613;47.408;8.412;2023-08-08T14:57:35;26.70;50.10
24430;DHT22;12613;47.408;8.412;2023-08-08T15:00:01;26.90;49.40
24430;DHT22;12613;47.408;8.412;2023-08-08T15:02:27;27.00;48.50
24430;DHT22;12613;47.408;8.412;2023-08-08T15:04:52;27.00;47.60
24430;DHT22;12613;47.408;8.412;2023-08-08T15:07:19;27.00;47.20
24430;DHT22;12613;47.408;8.412;2023-08-08T15:09:44;27.00;47.10
24430;DHT22;12613;47.408;8.412;2023-08-08T15:12:11;27.10;47.80
24430;DHT22;12613;47.408;8.412;2023-08-08T15:14:39;27.30;47.90
24430;DHT22;12613;47.408;8.412;2023-08-08T15:17:05;27.50;46.80
24430;DHT22;12613;47.408;8.412;2023-08-08T15:19:31;27.70;46.70
24430;DHT22;12613;47.408;8.412;2023-08-08T15:21:56;27.70;46.40
24430;DHT22;12613;47.408;8.412;2023-08-08T15:24:22;27.90;46.40
24430;DHT22;12613;47.408;8.412;2023-08-08T15:26:47;28.00;46.30
24430;DHT22;12613;47.408;8.412;2023-08-08T15:29:13;28.20;46.30
24430;DHT22;12613;47.408;8.412;2023-08-08T15:31:39;28.30;46.40
24430;DHT22;12613;47.408;8.412;2023-08-08T15:34:05;28.20;43.90
24430;DHT22;12613;47.408;8.412;2023-08-08T15:36:31;28.10;44.10
24430;DHT22;12613;47.408;8.412;2023-08-08T15:38:57;27.90;44.30
24430;DHT22;12613;47.408;8.412;2023-08-08T15:41:22;28.00;44.60
24430;DHT22;12613;47.408;8.412;2023-08-08T15:43:48;28.00;46.20
24430;DHT22;12613;47.408;8.412;2023-08-08T15:46:14;28.40;45.60